Jules Verne — A8SN2 — position and weather

sailwx.info

Track history (hours):
 
Tides and Currents Weather Stations Pressure Air Temp Water Temp Dewpoint Dewpoint Depression Visibility Wind Speed Wind Dir Waves Ship Positions

Jules Verne

Last reported at 2018-Jun-05 07:22 UTC. Time now 2018-Jun-22 07:44 UTC.
Position N 30°34' E 122°15'.
Warning: this ship's position is 17 days out of date.

Length 261 m; draft 7.7 m.

Type: Cargo ship. MMSI: 636091763.

Date/timePositionNaut miles runAvg speedWind from/ knotsBaromVisibWave heightAir tempDewpointWater temp
2018-Jun-05 07:22N 30°34' E 122°15'1710.6
2018-Jun-05 05:45N 30°31' E 122°34'  
2018-Jun-02 11:39N 36°02' E 120°15'1 5.7
2018-Jun-02 11:23N 36°01' E 120°13'1 2.5
2018-Jun-02 11:00N 36°01' E 120°12'0 0.0
2018-Jun-02 10:16N 36°01' E 120°12'0 0.0
2018-Jun-02 09:58N 36°01' E 120°12'0 0.0
2018-Jun-02 08:12N 36°01' E 120°12'0 0.0
2018-Jun-02 07:51N 36°01' E 120°12'0 0.0
2018-Jun-02 07:30N 36°01' E 120°12'0 0.0
2018-Jun-02 06:37N 36°01' E 120°12'0 0.0
2018-Jun-02 06:08N 36°01' E 120°12'0 0.1
2018-Jun-02 05:37N 36°01' E 120°12'0 0.1
2018-Jun-02 05:19N 36°01' E 120°12'0 0.0
2018-Jun-02 05:00N 36°01' E 120°12'0 0.1
2018-Jun-02 04:25N 36°01' E 120°12'3 6.9
2018-Jun-02 03:57N 36°02' E 120°16'4 8.0
2018-Jun-02 03:24N 36°01' E 120°21'4 8.7
2018-Jun-02 02:56N 36°01' E 120°26'147 6.9
2018-Jun-01 05:44N 37°47' E 122°33'210.8
2018-Jun-01 05:30N 37°48' E 122°30'2312.0
2018-Jun-01 03:34N 38°00' E 122°05'114.2
2018-Jun-01 03:28N 38°01' E 122°03'713.6
2018-Jun-01 02:57N 38°05' E 121°56'713.4
2018-Jun-01 02:27N 38°08' E 121°48'813.4
2018-Jun-01 01:52N 38°12' E 121°40'513.8
2018-Jun-01 01:30N 38°14' E 121°34'1413.6
2018-Jun-01 00:29N 38°22' E 121°20'713.7
2018-Jun-01 00:01N 38°26' E 121°12'713.7
2018-May-31 23:28N 38°29' E 121°04'713.8
2018-May-31 22:59N 38°32' E 120°56'813.8
2018-May-31 22:25N 38°34' E 120°47'914.0
2018-May-31 21:47N 38°35' E 120°36'414.0
2018-May-31 21:30N 38°36' E 120°31'713.9
2018-May-31 21:01N 38°37' E 120°22'713.9
2018-May-31 20:30N 38°38' E 120°13'713.9
2018-May-31 20:00N 38°39' E 120°04'914.2
2018-May-31 19:23N 38°40' E 119°53'15 0.4
2018-May-30 02:08N 38°39' E 120°13'0 0.1
2018-May-30 01:53N 38°39' E 120°13'0 0.1
2018-May-30 01:29N 38°39' E 120°13'0 0.1
2018-May-30 00:59N 38°39' E 120°13'0 0.1
2018-May-30 00:20N 38°39' E 120°13'0 0.0
2018-May-29 23:53N 38°39' E 120°13'0 0.0
2018-May-29 22:41N 38°39' E 120°13'0 0.0
2018-May-29 22:29N 38°39' E 120°13'0 0.0
2018-May-29 21:59N 38°39' E 120°13'0 0.1
2018-May-29 18:59N 38°39' E 120°13'0 0.0
2018-May-29 18:20N 38°39' E 120°13'0 0.1
2018-May-29 17:53N 38°39' E 120°13'0 0.1
2018-May-29 17:29N 38°39' E 120°13'0 0.1
2018-May-29 16:59N 38°39' E 120°13'0 0.0
2018-May-29 16:29N 38°39' E 120°13'0 0.0
2018-May-29 15:59N 38°39' E 120°13'0 0.0
2018-May-29 15:20N 38°39' E 120°13'0 0.1
2018-May-29 14:56N 38°39' E 120°13'0 0.4
2018-May-29 14:20N 38°39' E 120°13'0 0.0
2018-May-29 13:59N 38°39' E 120°13'0 0.0
2018-May-29 13:26N 38°39' E 120°13'0 0.0
2018-May-29 12:59N 38°39' E 120°13'0 0.0
2018-May-29 12:29N 38°39' E 120°13'0 0.1
2018-May-29 11:59N 38°39' E 120°13'0 0.0
2018-May-29 11:29N 38°39' E 120°13'0 0.0
2018-May-29 10:59N 38°39' E 120°13'0 0.1
2018-May-29 10:26N 38°39' E 120°13'0 0.0
2018-May-29 09:53N 38°39' E 120°13'0 0.1
2018-May-29 09:23N 38°39' E 120°13'0 0.1
2018-May-29 08:56N 38°39' E 120°13'0 0.1
2018-May-29 08:29N 38°39' E 120°13'0 0.0
2018-May-29 07:53N 38°39' E 120°13'0 0.1
2018-May-29 07:29N 38°39' E 120°13'0 0.0
2018-May-29 06:56N 38°39' E 120°13'0 0.0
2018-May-29 06:23N 38°39' E 120°13'0 0.0
2018-May-29 05:56N 38°39' E 120°13'0 0.0
2018-May-29 05:29N 38°39' E 120°13'0 0.1
2018-May-29 04:56N 38°39' E 120°13'0 0.0
2018-May-29 04:20N 38°39' E 120°13'0 0.0
2018-May-29 03:59N 38°39' E 120°13'0 0.0
2018-May-29 03:29N 38°39' E 120°13'0 0.0
2018-May-29 02:56N 38°39' E 120°13'0 0.0
2018-May-29 02:26N 38°39' E 120°13'0 0.1
2018-May-29 01:59N 38°39' E 120°13'0 0.0
2018-May-29 01:29N 38°39' E 120°13'0 0.3
2018-May-29 00:59N 38°39' E 120°13'0 0.2
2018-May-29 00:29N 38°39' E 120°13'0 0.1
2018-May-28 23:56N 38°39' E 120°13'0 0.0
2018-May-28 23:11N 38°39' E 120°13'0 0.0
2018-May-28 22:59N 38°39' E 120°13'0 0.0
2018-May-28 22:11N 38°39' E 120°13'0 0.0
2018-May-28 21:56N 38°39' E 120°13'0 0.1
2018-May-28 21:29N 38°39' E 120°13'0 0.0
2018-May-28 20:59N 38°39' E 120°13'0 0.0
2018-May-28 20:05N 38°39' E 120°13'0 0.1
2018-May-28 19:59N 38°39' E 120°13'0 0.0
2018-May-28 11:23N 38°39' E 120°13'0 0.0
2018-May-28 10:59N 38°39' E 120°13'0 0.1
2018-May-28 07:41N 38°39' E 120°13'0 0.1
2018-May-28 07:23N 38°39' E 120°13'0 0.0
2018-May-28 06:59N 38°39' E 120°13'0 0.1
2018-May-28 06:26N 38°39' E 120°13'0 0.0
2018-May-28 03:35N 38°39' E 120°13'0 0.0
2018-May-28 03:17N 38°39' E 120°13'0 0.0
2018-May-28 02:59N 38°39' E 120°13'0 0.1
2018-May-28 02:23N 38°39' E 120°13'0 0.0
2018-May-27 22:47N 38°39' E 120°13'0 0.0
2018-May-27 22:26N 38°39' E 120°13'0 0.0
2018-May-27 21:56N 38°39' E 120°13'0 0.0
2018-May-27 21:29N 38°39' E 120°13'0 0.0
2018-May-27 20:59N 38°39' E 120°13'0 0.0
2018-May-27 20:23N 38°39' E 120°13'0 0.0
2018-May-27 19:59N 38°39' E 120°13'0 0.1
2018-May-27 19:26N 38°39' E 120°13'0 0.0
2018-May-27 18:59N 38°39' E 120°13'0 0.0
2018-May-27 18:26N 38°39' E 120°13'0 0.1
2018-May-27 17:59N 38°39' E 120°13'0 0.0
2018-May-27 17:29N 38°39' E 120°13'0 0.1
2018-May-27 16:59N 38°39' E 120°13'0 0.0
2018-May-27 16:29N 38°39' E 120°13'0 0.1
2018-May-27 15:47N 38°39' E 120°13'0 0.0
2018-May-27 15:29N 38°39' E 120°13'0 0.1
2018-May-27 14:59N 38°39' E 120°13'0 0.0
2018-May-27 14:20N 38°39' E 120°13'0 0.1
2018-May-27 13:50N 38°39' E 120°13'0 0.0
2018-May-27 13:26N 38°39' E 120°13'0 0.1
2018-May-27 11:44N 38°39' E 120°13'0 0.1
2018-May-27 10:11N 38°39' E 120°13'0 0.0
2018-May-27 09:50N 38°39' E 120°13'0 0.0
2018-May-27 09:29N 38°39' E 120°13'0 0.0
2018-May-27 08:47N 38°39' E 120°13'0 0.2
2018-May-27 08:29N 38°39' E 120°13'0 0.0
2018-May-27 07:59N 38°39' E 120°13'0 0.0
2018-May-27 07:26N 38°39' E 120°13'0 0.1
2018-May-27 06:44N 38°39' E 120°13'0 0.0
2018-May-27 06:29N 38°39' E 120°13'0 0.0
2018-May-27 05:59N 38°39' E 120°13'0 0.1
2018-May-27 05:23N 38°39' E 120°13'0 0.0
2018-May-26 18:47N 38°39' E 120°13'0 0.2
2018-May-26 18:29N 38°39' E 120°13'0 0.0
2018-May-26 17:59N 38°39' E 120°13'0 0.0
2018-May-26 17:29N 38°39' E 120°13'0 0.0
2018-May-26 16:59N 38°39' E 120°13'0 0.1
2018-May-26 16:29N 38°39' E 120°13'0 0.0
2018-May-26 15:59N 38°39' E 120°13'0 0.1
2018-May-26 15:17N 38°39' E 120°13'0 0.0
2018-May-26 14:50N 38°39' E 120°13'0 0.0
2018-May-26 14:23N 38°39' E 120°13'0 0.1
2018-May-26 13:53N 38°39' E 120°13'0 0.0
2018-May-26 07:47N 38°39' E 120°13'  
Track history (hours):
 
Tides and Currents Weather Stations Pressure Air Temp Water Temp Dewpoint Dewpoint Depression Visibility Wind Speed Wind Dir Waves Ship Positions

Jules Verne

Last reported at 2018-Jun-05 07:22 UTC. Time now 2018-Jun-22 07:44 UTC.
Position N 30°34' E 122°15'.
Warning: this ship's position is 17 days out of date.

Length 261 m; draft 7.7 m.

Type: Cargo ship. MMSI: 636091763.

Date/timePositionNaut miles runAvg speedWind from/ knotsBaromVisibWave heightAir tempDewpointWater temp
2018-Jun-05 07:22N 30°34' E 122°15'1710.6
2018-Jun-05 05:45N 30°31' E 122°34'  
2018-Jun-02 11:39N 36°02' E 120°15'1 5.7
2018-Jun-02 11:23N 36°01' E 120°13'1 2.5
2018-Jun-02 11:00N 36°01' E 120°12'0 0.0
2018-Jun-02 10:16N 36°01' E 120°12'0 0.0
2018-Jun-02 09:58N 36°01' E 120°12'0 0.0
2018-Jun-02 08:12N 36°01' E 120°12'0 0.0
2018-Jun-02 07:51N 36°01' E 120°12'0 0.0
2018-Jun-02 07:30N 36°01' E 120°12'0 0.0
2018-Jun-02 06:37N 36°01' E 120°12'0 0.0
2018-Jun-02 06:08N 36°01' E 120°12'0 0.1
2018-Jun-02 05:37N 36°01' E 120°12'0 0.1
2018-Jun-02 05:19N 36°01' E 120°12'0 0.0
2018-Jun-02 05:00N 36°01' E 120°12'0 0.1
2018-Jun-02 04:25N 36°01' E 120°12'3 6.9
2018-Jun-02 03:57N 36°02' E 120°16'4 8.0
2018-Jun-02 03:24N 36°01' E 120°21'4 8.7
2018-Jun-02 02:56N 36°01' E 120°26'147 6.9
2018-Jun-01 05:44N 37°47' E 122°33'210.8
2018-Jun-01 05:30N 37°48' E 122°30'2312.0
2018-Jun-01 03:34N 38°00' E 122°05'114.2
2018-Jun-01 03:28N 38°01' E 122°03'713.6
2018-Jun-01 02:57N 38°05' E 121°56'713.4
2018-Jun-01 02:27N 38°08' E 121°48'813.4
2018-Jun-01 01:52N 38°12' E 121°40'513.8
2018-Jun-01 01:30N 38°14' E 121°34'1413.6
2018-Jun-01 00:29N 38°22' E 121°20'713.7
2018-Jun-01 00:01N 38°26' E 121°12'713.7
2018-May-31 23:28N 38°29' E 121°04'713.8
2018-May-31 22:59N 38°32' E 120°56'813.8
2018-May-31 22:25N 38°34' E 120°47'914.0
2018-May-31 21:47N 38°35' E 120°36'414.0
2018-May-31 21:30N 38°36' E 120°31'713.9
2018-May-31 21:01N 38°37' E 120°22'713.9
2018-May-31 20:30N 38°38' E 120°13'713.9
2018-May-31 20:00N 38°39' E 120°04'914.2
2018-May-31 19:23N 38°40' E 119°53'15 0.4
2018-May-30 02:08N 38°39' E 120°13'0 0.1
2018-May-30 01:53N 38°39' E 120°13'0 0.1
2018-May-30 01:29N 38°39' E 120°13'0 0.1
2018-May-30 00:59N 38°39' E 120°13'0 0.1
2018-May-30 00:20N 38°39' E 120°13'0 0.0
2018-May-29 23:53N 38°39' E 120°13'0 0.0
2018-May-29 22:41N 38°39' E 120°13'0 0.0
2018-May-29 22:29N 38°39' E 120°13'0 0.0
2018-May-29 21:59N 38°39' E 120°13'0 0.1
2018-May-29 18:59N 38°39' E 120°13'0 0.0
2018-May-29 18:20N 38°39' E 120°13'0 0.1
2018-May-29 17:53N 38°39' E 120°13'0 0.1
2018-May-29 17:29N 38°39' E 120°13'0 0.1
2018-May-29 16:59N 38°39' E 120°13'0 0.0
2018-May-29 16:29N 38°39' E 120°13'0 0.0
2018-May-29 15:59N 38°39' E 120°13'0 0.0
2018-May-29 15:20N 38°39' E 120°13'0 0.1
2018-May-29 14:56N 38°39' E 120°13'0 0.4
2018-May-29 14:20N 38°39' E 120°13'0 0.0
2018-May-29 13:59N 38°39' E 120°13'0 0.0
2018-May-29 13:26N 38°39' E 120°13'0 0.0
2018-May-29 12:59N 38°39' E 120°13'0 0.0
2018-May-29 12:29N 38°39' E 120°13'0 0.1
2018-May-29 11:59N 38°39' E 120°13'0 0.0
2018-May-29 11:29N 38°39' E 120°13'0 0.0
2018-May-29 10:59N 38°39' E 120°13'0 0.1
2018-May-29 10:26N 38°39' E 120°13'0 0.0
2018-May-29 09:53N 38°39' E 120°13'0 0.1
2018-May-29 09:23N 38°39' E 120°13'0 0.1
2018-May-29 08:56N 38°39' E 120°13'0 0.1
2018-May-29 08:29N 38°39' E 120°13'0 0.0
2018-May-29 07:53N 38°39' E 120°13'0 0.1
2018-May-29 07:29N 38°39' E 120°13'0 0.0
2018-May-29 06:56N 38°39' E 120°13'0 0.0
2018-May-29 06:23N 38°39' E 120°13'0 0.0
2018-May-29 05:56N 38°39' E 120°13'0 0.0
2018-May-29 05:29N 38°39' E 120°13'0 0.1
2018-May-29 04:56N 38°39' E 120°13'0 0.0
2018-May-29 04:20N 38°39' E 120°13'0 0.0
2018-May-29 03:59N 38°39' E 120°13'0 0.0
2018-May-29 03:29N 38°39' E 120°13'0 0.0
2018-May-29 02:56N 38°39' E 120°13'0 0.0
2018-May-29 02:26N 38°39' E 120°13'0 0.1
2018-May-29 01:59N 38°39' E 120°13'0 0.0
2018-May-29 01:29N 38°39' E 120°13'0 0.3
2018-May-29 00:59N 38°39' E 120°13'0 0.2
2018-May-29 00:29N 38°39' E 120°13'0 0.1
2018-May-28 23:56N 38°39' E 120°13'0 0.0
2018-May-28 23:11N 38°39' E 120°13'0 0.0
2018-May-28 22:59N 38°39' E 120°13'0 0.0
2018-May-28 22:11N 38°39' E 120°13'0 0.0
2018-May-28 21:56N 38°39' E 120°13'0 0.1
2018-May-28 21:29N 38°39' E 120°13'0 0.0
2018-May-28 20:59N 38°39' E 120°13'0 0.0
2018-May-28 20:05N 38°39' E 120°13'0 0.1
2018-May-28 19:59N 38°39' E 120°13'0 0.0
2018-May-28 11:23N 38°39' E 120°13'0 0.0
2018-May-28 10:59N 38°39' E 120°13'0 0.1
2018-May-28 07:41N 38°39' E 120°13'0 0.1
2018-May-28 07:23N 38°39' E 120°13'0 0.0
2018-May-28 06:59N 38°39' E 120°13'0 0.1
2018-May-28 06:26N 38°39' E 120°13'0 0.0
2018-May-28 03:35N 38°39' E 120°13'0 0.0
2018-May-28 03:17N 38°39' E 120°13'0 0.0
2018-May-28 02:59N 38°39' E 120°13'0 0.1
2018-May-28 02:23N 38°39' E 120°13'0 0.0
2018-May-27 22:47N 38°39' E 120°13'0 0.0
2018-May-27 22:26N 38°39' E 120°13'0 0.0
2018-May-27 21:56N 38°39' E 120°13'0 0.0
2018-May-27 21:29N 38°39' E 120°13'0 0.0
2018-May-27 20:59N 38°39' E 120°13'0 0.0
2018-May-27 20:23N 38°39' E 120°13'0 0.0
2018-May-27 19:59N 38°39' E 120°13'0 0.1
2018-May-27 19:26N 38°39' E 120°13'0 0.0
2018-May-27 18:59N 38°39' E 120°13'0 0.0
2018-May-27 18:26N 38°39' E 120°13'0 0.1
2018-May-27 17:59N 38°39' E 120°13'0 0.0
2018-May-27 17:29N 38°39' E 120°13'0 0.1
2018-May-27 16:59N 38°39' E 120°13'0 0.0
2018-May-27 16:29N 38°39' E 120°13'0 0.1
2018-May-27 15:47N 38°39' E 120°13'0 0.0
2018-May-27 15:29N 38°39' E 120°13'0 0.1
2018-May-27 14:59N 38°39' E 120°13'0 0.0
2018-May-27 14:20N 38°39' E 120°13'0 0.1
2018-May-27 13:50N 38°39' E 120°13'0 0.0
2018-May-27 13:26N 38°39' E 120°13'0 0.1
2018-May-27 11:44N 38°39' E 120°13'0 0.1
2018-May-27 10:11N 38°39' E 120°13'0 0.0
2018-May-27 09:50N 38°39' E 120°13'0 0.0
2018-May-27 09:29N 38°39' E 120°13'0 0.0
2018-May-27 08:47N 38°39' E 120°13'0 0.2
2018-May-27 08:29N 38°39' E 120°13'0 0.0
2018-May-27 07:59N 38°39' E 120°13'0 0.0
2018-May-27 07:26N 38°39' E 120°13'0 0.1
2018-May-27 06:44N 38°39' E 120°13'0 0.0
2018-May-27 06:29N 38°39' E 120°13'0 0.0
2018-May-27 05:59N 38°39' E 120°13'0 0.1
2018-May-27 05:23N 38°39' E 120°13'0 0.0
2018-May-26 18:47N 38°39' E 120°13'0 0.2
2018-May-26 18:29N 38°39' E 120°13'0 0.0
2018-May-26 17:59N 38°39' E 120°13'0 0.0
2018-May-26 17:29N 38°39' E 120°13'0 0.0
2018-May-26 16:59N 38°39' E 120°13'0 0.1
2018-May-26 16:29N 38°39' E 120°13'0 0.0
2018-May-26 15:59N 38°39' E 120°13'0 0.1
2018-May-26 15:17N 38°39' E 120°13'0 0.0
2018-May-26 14:50N 38°39' E 120°13'0 0.0
2018-May-26 14:23N 38°39' E 120°13'0 0.1
2018-May-26 13:53N 38°39' E 120°13'0 0.0
2018-May-26 07:47N 38°39' E 120°13'  

Dump ship's entire track history